sensor_id;sensor_type;location;lat;lon;timestamp;P1;durP1;ratioP1;P2;durP2;ratioP2
22713;SDS011;11524;50.846;4.326;2023-02-28T00:00:44;2.65;;;1.58;;
22713;SDS011;11524;50.846;4.326;2023-02-28T00:03:09;2.42;;;1.38;;
22713;SDS011;11524;50.846;4.326;2023-02-28T00:05:35;1.83;;;1.40;;
22713;SDS011;11524;50.846;4.326;2023-02-28T00:08:01;2.83;;;1.50;;
22713;SDS011;11524;50.846;4.326;2023-02-28T00:10:27;2.53;;;1.50;;
22713;SDS011;11524;50.846;4.326;2023-02-28T00:12:55;1.27;;;1.10;;
22713;SDS011;11524;50.846;4.326;2023-02-28T00:15:25;1.70;;;1.40;;
22713;SDS011;11524;50.846;4.326;2023-02-28T00:17:51;2.60;;;1.70;;
22713;SDS011;11524;50.846;4.326;2023-02-28T00:20:16;1.70;;;1.30;;
22713;SDS011;11524;50.846;4.326;2023-02-28T00:22:43;2.20;;;1.33;;
22713;SDS011;11524;50.846;4.326;2023-02-28T00:25:11;3.10;;;1.67;;
22713;SDS011;11524;50.846;4.326;2023-02-28T00:27:39;3.10;;;1.23;;
22713;SDS011;11524;50.846;4.326;2023-02-28T00:30:05;1.85;;;1.30;;
22713;SDS011;11524;50.846;4.326;2023-02-28T00:32:33;3.72;;;1.50;;
22713;SDS011;11524;50.846;4.326;2023-02-28T00:34:59;2.40;;;1.58;;
22713;SDS011;11524;50.846;4.326;2023-02-28T00:37:25;3.17;;;1.58;;
22713;SDS011;11524;50.846;4.326;2023-02-28T00:39:50;1.88;;;1.35;;
22713;SDS011;11524;50.846;4.326;2023-02-28T00:42:16;1.83;;;1.45;;
22713;SDS011;11524;50.846;4.326;2023-02-28T00:44:41;6.07;;;1.50;;
22713;SDS011;11524;50.846;4.326;2023-02-28T00:47:07;2.22;;;1.25;;
22713;SDS011;11524;50.846;4.326;2023-02-28T00:49:33;2.20;;;1.35;;
22713;SDS011;11524;50.846;4.326;2023-02-28T00:51:58;1.83;;;1.40;;
22713;SDS011;11524;50.846;4.326;2023-02-28T00:54:24;2.85;;;1.63;;
22713;SDS011;11524;50.846;4.326;2023-02-28T00:56:50;2.72;;;1.30;;
22713;SDS011;11524;50.846;4.326;2023-02-28T00:59:16;2.20;;;1.33;;
22713;SDS011;11524;50.846;4.326;2023-02-28T01:01:43;1.98;;;1.40;;
22713;SDS011;11524;50.846;4.326;2023-02-28T01:04:10;1.58;;;1.33;;
22713;SDS011;11524;50.846;4.326;2023-02-28T01:06:36;2.35;;;1.30;;
22713;SDS011;11524;50.846;4.326;2023-02-28T01:09:02;1.95;;;1.42;;
22713;SDS011;11524;50.846;4.326;2023-02-28T01:11:29;1.17;;;1.05;;
22713;SDS011;11524;50.846;4.326;2023-02-28T01:13:55;2.60;;;1.30;;
22713;SDS011;11524;50.846;4.326;2023-02-28T01:16:21;4.60;;;1.40;;
22713;SDS011;11524;50.846;4.326;2023-02-28T01:18:47;1.77;;;1.30;;
22713;SDS011;11524;50.846;4.326;2023-02-28T01:21:14;3.08;;;1.67;;
22713;SDS011;11524;50.846;4.326;2023-02-28T01:23:41;4.80;;;1.67;;
22713;SDS011;11524;50.846;4.326;2023-02-28T01:26:09;3.30;;;1.42;;
22713;SDS011;11524;50.846;4.326;2023-02-28T01:28:39;1.60;;;1.23;;
22713;SDS011;11524;50.846;4.326;2023-02-28T01:31:05;2.38;;;1.42;;
22713;SDS011;11524;50.846;4.326;2023-02-28T01:33:31;1.48;;;1.23;;
22713;SDS011;11524;50.846;4.326;2023-02-28T01:36:01;3.03;;;1.52;;
22713;SDS011;11524;50.846;4.326;2023-02-28T01:38:28;1.20;;;1.10;;
22713;SDS011;11524;50.846;4.326;2023-02-28T01:40:54;2.38;;;1.55;;
22713;SDS011;11524;50.846;4.326;2023-02-28T01:43:24;1.95;;;1.38;;
22713;SDS011;11524;50.846;4.326;2023-02-28T01:45:52;1.60;;;1.27;;
22713;SDS011;11524;50.846;4.326;2023-02-28T01:48:21;2.30;;;1.10;;
22713;SDS011;11524;50.846;4.326;2023-02-28T01:50:52;2.70;;;1.38;;
22713;SDS011;11524;50.846;4.326;2023-02-28T01:53:24;1.75;;;1.38;;
22713;SDS011;11524;50.846;4.326;2023-02-28T01:55:56;2.90;;;1.50;;
22713;SDS011;11524;50.846;4.326;2023-02-28T01:58:22;1.60;;;1.20;;
22713;SDS011;11524;50.846;4.326;2023-02-28T02:00:48;2.35;;;1.40;;
22713;SDS011;11524;50.846;4.326;2023-02-28T02:03:15;1.88;;;1.40;;
22713;SDS011;11524;50.846;4.326;2023-02-28T02:05:44;2.33;;;1.30;;
22713;SDS011;11524;50.846;4.326;2023-02-28T02:08:13;2.65;;;1.40;;
22713;SDS011;11524;50.846;4.326;2023-02-28T02:10:43;2.17;;;1.70;;
22713;SDS011;11524;50.846;4.326;2023-02-28T02:19:06;2.72;;;1.30;;
22713;SDS011;11524;50.846;4.326;2023-02-28T02:29:58;2.33;;;1.30;;
22713;SDS011;11524;50.846;4.326;2023-02-28T02:35:40;3.88;;;1.73;;
22713;SDS011;11524;50.846;4.326;2023-02-28T02:40:58;2.55;;;1.63;;
22713;SDS011;11524;50.846;4.326;2023-02-28T02:44:02;2.88;;;1.45;;
22713;SDS011;11524;50.846;4.326;2023-02-28T02:46:40;2.25;;;1.67;;
22713;SDS011;11524;50.846;4.326;2023-02-28T02:49:09;1.98;;;1.40;;
22713;SDS011;11524;50.846;4.326;2023-02-28T02:51:40;3.42;;;1.70;;
22713;SDS011;11524;50.846;4.326;2023-02-28T02:54:28;3.38;;;1.73;;
22713;SDS011;11524;50.846;4.326;2023-02-28T02:56:59;4.97;;;1.67;;
22713;SDS011;11524;50.846;4.326;2023-02-28T02:59:28;1.75;;;1.33;;
22713;SDS011;11524;50.846;4.326;2023-02-28T03:01:56;2.38;;;1.90;;
22713;SDS011;11524;50.846;4.326;2023-02-28T03:04:30;2.20;;;1.48;;
22713;SDS011;11524;50.846;4.326;2023-02-28T03:07:03;2.35;;;1.63;;
22713;SDS011;11524;50.846;4.326;2023-02-28T03:09:28;2.00;;;1.55;;
22713;SDS011;11524;50.846;4.326;2023-02-28T03:11:57;3.22;;;1.75;;
22713;SDS011;11524;50.846;4.326;2023-02-28T03:17:38;2.55;;;1.50;;
22713;SDS011;11524;50.846;4.326;2023-02-28T03:20:01;3.05;;;1.58;;
22713;SDS011;11524;50.846;4.326;2023-02-28T03:28:15;4.47;;;2.13;;
22713;SDS011;11524;50.846;4.326;2023-02-28T03:31:19;4.25;;;2.00;;
22713;SDS011;11524;50.846;4.326;2023-02-28T03:33:58;3.53;;;2.17;;
22713;SDS011;11524;50.846;4.326;2023-02-28T03:36:37;3.65;;;1.80;;
22713;SDS011;11524;50.846;4.326;2023-02-28T03:39:09;6.97;;;1.90;;
22713;SDS011;11524;50.846;4.326;2023-02-28T03:41:49;3.97;;;1.92;;
22713;SDS011;11524;50.846;4.326;2023-02-28T03:44:38;3.60;;;2.10;;
22713;SDS011;11524;50.846;4.326;2023-02-28T03:47:58;3.00;;;2.00;;
22713;SDS011;11524;50.846;4.326;2023-02-28T03:50:18;3.65;;;2.30;;
22713;SDS011;11524;50.846;4.326;2023-02-28T03:52:53;3.13;;;2.13;;
22713;SDS011;11524;50.846;4.326;2023-02-28T03:55:26;3.67;;;2.08;;
22713;SDS011;11524;50.846;4.326;2023-02-28T03:58:42;4.03;;;1.90;;
22713;SDS011;11524;50.846;4.326;2023-02-28T04:01:15;2.27;;;1.73;;
22713;SDS011;11524;50.846;4.326;2023-02-28T04:03:47;4.43;;;1.70;;
22713;SDS011;11524;50.846;4.326;2023-02-28T04:06:15;4.68;;;1.73;;
22713;SDS011;11524;50.846;4.326;2023-02-28T04:08:43;2.55;;;1.65;;
22713;SDS011;11524;50.846;4.326;2023-02-28T04:13:46;2.40;;;1.83;;
22713;SDS011;11524;50.846;4.326;2023-02-28T04:16:11;3.70;;;1.80;;
22713;SDS011;11524;50.846;4.326;2023-02-28T04:18:38;4.97;;;1.80;;
22713;SDS011;11524;50.846;4.326;2023-02-28T04:21:04;2.72;;;1.83;;
22713;SDS011;11524;50.846;4.326;2023-02-28T04:23:30;2.00;;;1.67;;
22713;SDS011;11524;50.846;4.326;2023-02-28T04:25:56;3.70;;;1.75;;
22713;SDS011;11524;50.846;4.326;2023-02-28T04:28:22;2.72;;;1.70;;
22713;SDS011;11524;50.846;4.326;2023-02-28T04:30:47;3.17;;;1.90;;
22713;SDS011;11524;50.846;4.326;2023-02-28T04:33:19;2.53;;;1.98;;
22713;SDS011;11524;50.846;4.326;2023-02-28T04:35:44;3.10;;;1.90;;
22713;SDS011;11524;50.846;4.326;2023-02-28T04:38:10;4.10;;;2.15;;
22713;SDS011;11524;50.846;4.326;2023-02-28T04:40:35;3.80;;;2.08;;
22713;SDS011;11524;50.846;4.326;2023-02-28T04:43:01;3.13;;;2.10;;
22713;SDS011;11524;50.846;4.326;2023-02-28T04:45:28;2.90;;;1.83;;
22713;SDS011;11524;50.846;4.326;2023-02-28T04:47:57;2.50;;;1.85;;
22713;SDS011;11524;50.846;4.326;2023-02-28T04:50:22;2.53;;;1.85;;
22713;SDS011;11524;50.846;4.326;2023-02-28T04:52:48;4.07;;;1.70;;
22713;SDS011;11524;50.846;4.326;2023-02-28T04:55:14;3.15;;;1.90;;
22713;SDS011;11524;50.846;4.326;2023-02-28T04:57:39;3.47;;;2.05;;
22713;SDS011;11524;50.846;4.326;2023-02-28T05:00:07;3.00;;;1.92;;
22713;SDS011;11524;50.846;4.326;2023-02-28T05:02:36;7.53;;;1.90;;
22713;SDS011;11524;50.846;4.326;2023-02-28T05:05:02;2.83;;;1.75;;
22713;SDS011;11524;50.846;4.326;2023-02-28T05:07:28;2.83;;;1.52;;
22713;SDS011;11524;50.846;4.326;2023-02-28T05:09:54;3.22;;;1.80;;
22713;SDS011;11524;50.846;4.326;2023-02-28T05:12:19;3.15;;;2.17;;
22713;SDS011;11524;50.846;4.326;2023-02-28T05:14:45;2.38;;;1.77;;
22713;SDS011;11524;50.846;4.326;2023-02-28T05:17:10;2.20;;;1.75;;
22713;SDS011;11524;50.846;4.326;2023-02-28T05:19:36;2.60;;;1.95;;
22713;SDS011;11524;50.846;4.326;2023-02-28T05:22:01;4.43;;;2.30;;
22713;SDS011;11524;50.846;4.326;2023-02-28T05:24:27;3.10;;;2.05;;
22713;SDS011;11524;50.846;4.326;2023-02-28T05:26:53;2.95;;;2.10;;
22713;SDS011;11524;50.846;4.326;2023-02-28T05:29:19;3.45;;;2.10;;
22713;SDS011;11524;50.846;4.326;2023-02-28T05:31:45;2.60;;;2.13;;
22713;SDS011;11524;50.846;4.326;2023-02-28T05:34:11;3.63;;;2.25;;
22713;SDS011;11524;50.846;4.326;2023-02-28T05:36:37;2.97;;;1.92;;
22713;SDS011;11524;50.846;4.326;2023-02-28T05:39:07;2.78;;;1.90;;
22713;SDS011;11524;50.846;4.326;2023-02-28T05:41:37;4.45;;;2.13;;
22713;SDS011;11524;50.846;4.326;2023-02-28T05:44:04;2.45;;;1.80;;
22713;SDS011;11524;50.846;4.326;2023-02-28T05:46:29;3.78;;;2.10;;
22713;SDS011;11524;50.846;4.326;2023-02-28T05:48:55;2.88;;;2.00;;
22713;SDS011;11524;50.846;4.326;2023-02-28T05:51:22;4.45;;;2.13;;
22713;SDS011;11524;50.846;4.326;2023-02-28T05:53:48;3.03;;;2.10;;
22713;SDS011;11524;50.846;4.326;2023-02-28T05:56:14;3.47;;;2.03;;
22713;SDS011;11524;50.846;4.326;2023-02-28T05:58:40;2.90;;;1.83;;
22713;SDS011;11524;50.846;4.326;2023-02-28T06:01:22;2.92;;;2.10;;
22713;SDS011;11524;50.846;4.326;2023-02-28T06:03:58;4.13;;;2.08;;
22713;SDS011;11524;50.846;4.326;2023-02-28T06:06:24;2.75;;;1.95;;
22713;SDS011;11524;50.846;4.326;2023-02-28T06:08:50;2.75;;;1.92;;
22713;SDS011;11524;50.846;4.326;2023-02-28T06:11:16;3.80;;;2.00;;
22713;SDS011;11524;50.846;4.326;2023-02-28T06:13:41;4.45;;;2.00;;
22713;SDS011;11524;50.846;4.326;2023-02-28T06:16:08;2.50;;;1.80;;
22713;SDS011;11524;50.846;4.326;2023-02-28T06:18:35;3.03;;;2.00;;
22713;SDS011;11524;50.846;4.326;2023-02-28T06:21:01;2.55;;;1.90;;
22713;SDS011;11524;50.846;4.326;2023-02-28T06:23:27;2.90;;;2.20;;
22713;SDS011;11524;50.846;4.326;2023-02-28T06:25:52;2.58;;;1.70;;
22713;SDS011;11524;50.846;4.326;2023-02-28T06:28:18;2.00;;;1.75;;
22713;SDS011;11524;50.846;4.326;2023-02-28T06:30:44;2.78;;;2.10;;
22713;SDS011;11524;50.846;4.326;2023-02-28T06:33:09;4.00;;;2.28;;
22713;SDS011;11524;50.846;4.326;2023-02-28T06:35:35;3.92;;;2.30;;
22713;SDS011;11524;50.846;4.326;2023-02-28T06:38:01;5.38;;;2.30;;
22713;SDS011;11524;50.846;4.326;2023-02-28T06:40:26;8.38;;;2.03;;
22713;SDS011;11524;50.846;4.326;2023-02-28T06:42:52;6.63;;;2.05;;
22713;SDS011;11524;50.846;4.326;2023-02-28T06:45:17;9.18;;;2.10;;
22713;SDS011;11524;50.846;4.326;2023-02-28T06:47:43;5.32;;;2.72;;
22713;SDS011;11524;50.846;4.326;2023-02-28T06:50:10;4.68;;;2.58;;
22713;SDS011;11524;50.846;4.326;2023-02-28T06:52:36;3.60;;;2.70;;
22713;SDS011;11524;50.846;4.326;2023-02-28T06:55:03;4.95;;;2.97;;
22713;SDS011;11524;50.846;4.326;2023-02-28T06:57:30;3.92;;;2.58;;
22713;SDS011;11524;50.846;4.326;2023-02-28T06:59:57;3.20;;;2.28;;
22713;SDS011;11524;50.846;4.326;2023-02-28T07:02:24;4.65;;;2.97;;
22713;SDS011;11524;50.846;4.326;2023-02-28T07:04:49;7.13;;;2.85;;
22713;SDS011;11524;50.846;4.326;2023-02-28T07:07:15;6.68;;;2.65;;
22713;SDS011;11524;50.846;4.326;2023-02-28T07:09:41;7.13;;;2.40;;
22713;SDS011;11524;50.846;4.326;2023-02-28T07:12:06;9.15;;;3.92;;
22713;SDS011;11524;50.846;4.326;2023-02-28T07:14:32;11.52;;;3.90;;
22713;SDS011;11524;50.846;4.326;2023-02-28T07:16:57;14.70;;;3.83;;
22713;SDS011;11524;50.846;4.326;2023-02-28T07:19:24;12.43;;;4.15;;
22713;SDS011;11524;50.846;4.326;2023-02-28T07:21:50;11.95;;;3.83;;
22713;SDS011;11524;50.846;4.326;2023-02-28T07:24:15;8.90;;;3.33;;
22713;SDS011;11524;50.846;4.326;2023-02-28T07:26:42;8.07;;;3.13;;
22713;SDS011;11524;50.846;4.326;2023-02-28T07:29:08;10.20;;;3.38;;
22713;SDS011;11524;50.846;4.326;2023-02-28T07:31:34;6.18;;;3.20;;
22713;SDS011;11524;50.846;4.326;2023-02-28T07:33:59;6.95;;;3.00;;
22713;SDS011;11524;50.846;4.326;2023-02-28T07:36:25;8.90;;;3.50;;
22713;SDS011;11524;50.846;4.326;2023-02-28T07:38:50;10.35;;;3.50;;
22713;SDS011;11524;50.846;4.326;2023-02-28T07:41:17;7.03;;;2.97;;
22713;SDS011;11524;50.846;4.326;2023-02-28T07:43:44;5.38;;;3.00;;
22713;SDS011;11524;50.846;4.326;2023-02-28T07:46:12;7.40;;;3.30;;
22713;SDS011;11524;50.846;4.326;2023-02-28T07:48:41;8.30;;;3.50;;
22713;SDS011;11524;50.846;4.326;2023-02-28T07:51:09;6.60;;;3.03;;
22713;SDS011;11524;50.846;4.326;2023-02-28T07:53:35;5.28;;;2.70;;
22713;SDS011;11524;50.846;4.326;2023-02-28T07:56:01;6.65;;;3.00;;
22713;SDS011;11524;50.846;4.326;2023-02-28T07:58:28;3.97;;;2.67;;
22713;SDS011;11524;50.846;4.326;2023-02-28T08:00:54;6.30;;;2.90;;
22713;SDS011;11524;50.846;4.326;2023-02-28T08:03:21;5.40;;;2.40;;
22713;SDS011;11524;50.846;4.326;2023-02-28T08:05:48;4.50;;;2.60;;
22713;SDS011;11524;50.846;4.326;2023-02-28T08:08:15;5.45;;;2.33;;
22713;SDS011;11524;50.846;4.326;2023-02-28T08:10:41;4.75;;;2.65;;
22713;SDS011;11524;50.846;4.326;2023-02-28T08:13:07;3.40;;;2.25;;
22713;SDS011;11524;50.846;4.326;2023-02-28T08:15:33;5.00;;;2.70;;
22713;SDS011;11524;50.846;4.326;2023-02-28T08:17:59;4.35;;;2.40;;
22713;SDS011;11524;50.846;4.326;2023-02-28T08:20:25;4.93;;;2.25;;
22713;SDS011;11524;50.846;4.326;2023-02-28T08:22:51;2.65;;;1.90;;
22713;SDS011;11524;50.846;4.326;2023-02-28T08:25:17;3.50;;;1.90;;
22713;SDS011;11524;50.846;4.326;2023-02-28T08:27:43;6.65;;;2.22;;
22713;SDS011;11524;50.846;4.326;2023-02-28T08:30:12;3.72;;;1.88;;
22713;SDS011;11524;50.846;4.326;2023-02-28T08:32:39;3.30;;;1.90;;
22713;SDS011;11524;50.846;4.326;2023-02-28T08:35:05;5.72;;;2.30;;
22713;SDS011;11524;50.846;4.326;2023-02-28T08:37:31;3.55;;;1.92;;
22713;SDS011;11524;50.846;4.326;2023-02-28T08:39:57;4.47;;;2.28;;
22713;SDS011;11524;50.846;4.326;2023-02-28T08:42:23;3.10;;;1.88;;
22713;SDS011;11524;50.846;4.326;2023-02-28T08:44:49;3.60;;;2.00;;
22713;SDS011;11524;50.846;4.326;2023-02-28T08:47:15;5.07;;;2.03;;
22713;SDS011;11524;50.846;4.326;2023-02-28T08:49:40;5.82;;;1.83;;
22713;SDS011;11524;50.846;4.326;2023-02-28T08:52:06;3.58;;;2.03;;
22713;SDS011;11524;50.846;4.326;2023-02-28T08:54:32;4.30;;;1.70;;
22713;SDS011;11524;50.846;4.326;2023-02-28T08:56:58;2.53;;;1.60;;
22713;SDS011;11524;50.846;4.326;2023-02-28T08:59:24;4.72;;;1.65;;
22713;SDS011;11524;50.846;4.326;2023-02-28T09:01:50;2.67;;;2.00;;
22713;SDS011;11524;50.846;4.326;2023-02-28T09:04:15;3.80;;;2.00;;
22713;SDS011;11524;50.846;4.326;2023-02-28T09:06:41;5.38;;;2.13;;
22713;SDS011;11524;50.846;4.326;2023-02-28T09:09:06;4.03;;;1.92;;
22713;SDS011;11524;50.846;4.326;2023-02-28T09:11:32;2.85;;;1.70;;
22713;SDS011;11524;50.846;4.326;2023-02-28T09:13:59;3.38;;;2.10;;
22713;SDS011;11524;50.846;4.326;2023-02-28T09:16:25;2.95;;;2.00;;
22713;SDS011;11524;50.846;4.326;2023-02-28T09:18:51;4.18;;;2.00;;
22713;SDS011;11524;50.846;4.326;2023-02-28T09:21:18;3.05;;;2.00;;
22713;SDS011;11524;50.846;4.326;2023-02-28T09:23:45;4.00;;;2.35;;
22713;SDS011;11524;50.846;4.326;2023-02-28T09:26:22;3.03;;;1.77;;
22713;SDS011;11524;50.846;4.326;2023-02-28T09:28:50;2.80;;;1.80;;
22713;SDS011;11524;50.846;4.326;2023-02-28T09:31:17;4.80;;;1.70;;
22713;SDS011;11524;50.846;4.326;2023-02-28T09:33:46;2.80;;;1.83;;
22713;SDS011;11524;50.846;4.326;2023-02-28T09:36:13;4.22;;;1.92;;
22713;SDS011;11524;50.846;4.326;2023-02-28T09:38:38;3.10;;;1.60;;
22713;SDS011;11524;50.846;4.326;2023-02-28T09:41:11;3.78;;;2.13;;
22713;SDS011;11524;50.846;4.326;2023-02-28T09:43:41;1.98;;;1.70;;
22713;SDS011;11524;50.846;4.326;2023-02-28T09:48:53;2.92;;;1.65;;
22713;SDS011;11524;50.846;4.326;2023-02-28T09:53:52;2.65;;;1.50;;
22713;SDS011;11524;50.846;4.326;2023-02-28T09:56:20;2.63;;;1.83;;
22713;SDS011;11524;50.846;4.326;2023-02-28T09:59:00;1.80;;;1.33;;
22713;SDS011;11524;50.846;4.326;2023-02-28T10:10:07;2.70;;;1.40;;
22713;SDS011;11524;50.846;4.326;2023-02-28T10:12:52;2.22;;;1.35;;
22713;SDS011;11524;50.846;4.326;2023-02-28T10:15:21;3.05;;;1.85;;
22713;SDS011;11524;50.846;4.326;2023-02-28T10:17:51;2.28;;;1.55;;
22713;SDS011;11524;50.846;4.326;2023-02-28T10:20:21;1.73;;;1.30;;
22713;SDS011;11524;50.846;4.326;2023-02-28T10:25:39;2.63;;;1.45;;
22713;SDS011;11524;50.846;4.326;2023-02-28T10:30:37;2.35;;;1.52;;
22713;SDS011;11524;50.846;4.326;2023-02-28T10:33:08;3.13;;;1.38;;
22713;SDS011;11524;50.846;4.326;2023-02-28T10:35:49;1.88;;;1.30;;
22713;SDS011;11524;50.846;4.326;2023-02-28T10:38:24;2.58;;;1.45;;
22713;SDS011;11524;50.846;4.326;2023-02-28T10:41:08;2.63;;;1.45;;
22713;SDS011;11524;50.846;4.326;2023-02-28T10:43:39;3.03;;;1.60;;
22713;SDS011;11524;50.846;4.326;2023-02-28T10:48:42;1.60;;;1.13;;
22713;SDS011;11524;50.846;4.326;2023-02-28T10:51:10;2.05;;;1.23;;
22713;SDS011;11524;50.846;4.326;2023-02-28T10:53:51;1.88;;;1.30;;
22713;SDS011;11524;50.846;4.326;2023-02-28T10:56:20;3.15;;;1.20;;
22713;SDS011;11524;50.846;4.326;2023-02-28T10:59:00;2.38;;;1.35;;
22713;SDS011;11524;50.846;4.326;2023-02-28T11:06:58;1.42;;;1.02;;
22713;SDS011;11524;50.846;4.326;2023-02-28T11:09:36;2.60;;;1.20;;
22713;SDS011;11524;50.846;4.326;2023-02-28T11:12:06;1.50;;;1.15;;
22713;SDS011;11524;50.846;4.326;2023-02-28T11:14:47;2.50;;;1.48;;
22713;SDS011;11524;50.846;4.326;2023-02-28T11:17:24;2.78;;;1.20;;
22713;SDS011;11524;50.846;4.326;2023-02-28T11:19:53;1.73;;;1.20;;
22713;SDS011;11524;50.846;4.326;2023-02-28T11:22:23;1.67;;;1.23;;
22713;SDS011;11524;50.846;4.326;2023-02-28T11:24:53;1.60;;;1.10;;
22713;SDS011;11524;50.846;4.326;2023-02-28T11:29:58;2.08;;;1.30;;
22713;SDS011;11524;50.846;4.326;2023-02-28T11:32:25;2.22;;;1.30;;
22713;SDS011;11524;50.846;4.326;2023-02-28T11:37:36;2.78;;;1.58;;
22713;SDS011;11524;50.846;4.326;2023-02-28T11:40:12;2.13;;;1.33;;
22713;SDS011;11524;50.846;4.326;2023-02-28T11:42:55;1.48;;;1.10;;
22713;SDS011;11524;50.846;4.326;2023-02-28T11:58:45;1.90;;;1.20;;
22713;SDS011;11524;50.846;4.326;2023-02-28T12:09:44;2.17;;;1.25;;
22713;SDS011;11524;50.846;4.326;2023-02-28T12:12:23;1.75;;;1.40;;
22713;SDS011;11524;50.846;4.326;2023-02-28T12:23:47;1.65;;;1.35;;
22713;SDS011;11524;50.846;4.326;2023-02-28T12:26:39;2.38;;;1.20;;
22713;SDS011;11524;50.846;4.326;2023-02-28T12:31:55;2.22;;;1.13;;
22713;SDS011;11524;50.846;4.326;2023-02-28T12:34:32;2.17;;;1.20;;
22713;SDS011;11524;50.846;4.326;2023-02-28T12:37:10;1.55;;;1.08;;
22713;SDS011;11524;50.846;4.326;2023-02-28T12:39:46;1.73;;;1.05;;
22713;SDS011;11524;50.846;4.326;2023-02-28T12:42:39;3.42;;;1.45;;
22713;SDS011;11524;50.846;4.326;2023-02-28T12:47:33;2.28;;;1.23;;
22713;SDS011;11524;50.846;4.326;2023-02-28T12:50:01;2.15;;;1.30;;
22713;SDS011;11524;50.846;4.326;2023-02-28T12:52:35;1.70;;;1.20;;
22713;SDS011;11524;50.846;4.326;2023-02-28T12:57:44;1.75;;;1.40;;
22713;SDS011;11524;50.846;4.326;2023-02-28T13:00:25;2.22;;;1.30;;
22713;SDS011;11524;50.846;4.326;2023-02-28T13:09:01;2.08;;;1.10;;
22713;SDS011;11524;50.846;4.326;2023-02-28T13:11:41;2.58;;;1.30;;
22713;SDS011;11524;50.846;4.326;2023-02-28T13:19:34;1.40;;;1.13;;
22713;SDS011;11524;50.846;4.326;2023-02-28T13:22:04;1.88;;;1.20;;
22713;SDS011;11524;50.846;4.326;2023-02-28T13:34:31;1.45;;;1.13;;
22713;SDS011;11524;50.846;4.326;2023-02-28T13:37:30;2.00;;;1.30;;
22713;SDS011;11524;50.846;4.326;2023-02-28T13:39:58;2.22;;;1.35;;
22713;SDS011;11524;50.846;4.326;2023-02-28T13:42:49;2.20;;;1.30;;
22713;SDS011;11524;50.846;4.326;2023-02-28T13:45:28;1.83;;;1.30;;
22713;SDS011;11524;50.846;4.326;2023-02-28T13:48:02;1.67;;;1.00;;
22713;SDS011;11524;50.846;4.326;2023-02-28T13:55:42;2.78;;;1.38;;
22713;SDS011;11524;50.846;4.326;2023-02-28T13:58:26;2.08;;;1.10;;
22713;SDS011;11524;50.846;4.326;2023-02-28T14:06:55;1.73;;;1.15;;
22713;SDS011;11524;50.846;4.326;2023-02-28T14:09:25;1.80;;;1.30;;
22713;SDS011;11524;50.846;4.326;2023-02-28T14:11:54;2.25;;;1.30;;
22713;SDS011;11524;50.846;4.326;2023-02-28T14:17:12;1.48;;;1.27;;
22713;SDS011;11524;50.846;4.326;2023-02-28T14:19:40;1.50;;;1.00;;
22713;SDS011;11524;50.846;4.326;2023-02-28T14:22:19;2.28;;;1.20;;
22713;SDS011;11524;50.846;4.326;2023-02-28T14:27:48;2.40;;;1.27;;
22713;SDS011;11524;50.846;4.326;2023-02-28T14:30:40;1.33;;;1.20;;
22713;SDS011;11524;50.846;4.326;2023-02-28T14:38:36;2.85;;;1.48;;
22713;SDS011;11524;50.846;4.326;2023-02-28T14:41:15;1.77;;;1.13;;
22713;SDS011;11524;50.846;4.326;2023-02-28T14:43:52;2.47;;;1.20;;
22713;SDS011;11524;50.846;4.326;2023-02-28T14:46:22;1.70;;;1.10;;
22713;SDS011;11524;50.846;4.326;2023-02-28T14:48:51;2.22;;;1.50;;
22713;SDS011;11524;50.846;4.326;2023-02-28T14:51:18;2.03;;;1.10;;
22713;SDS011;11524;50.846;4.326;2023-02-28T14:53:48;2.30;;;1.30;;
22713;SDS011;11524;50.846;4.326;2023-02-28T14:56:20;1.45;;;1.30;;
22713;SDS011;11524;50.846;4.326;2023-02-28T14:58:53;1.77;;;1.52;;
22713;SDS011;11524;50.846;4.326;2023-02-28T15:01:21;2.10;;;1.20;;
22713;SDS011;11524;50.846;4.326;2023-02-28T15:03:56;2.15;;;1.30;;
22713;SDS011;11524;50.846;4.326;2023-02-28T15:06:27;1.65;;;1.30;;
22713;SDS011;11524;50.846;4.326;2023-02-28T15:09:07;2.13;;;1.30;;
22713;SDS011;11524;50.846;4.326;2023-02-28T15:11:33;1.80;;;1.23;;
22713;SDS011;11524;50.846;4.326;2023-02-28T15:13:59;1.95;;;1.30;;
22713;SDS011;11524;50.846;4.326;2023-02-28T15:16:28;1.42;;;1.00;;
22713;SDS011;11524;50.846;4.326;2023-02-28T15:19:07;2.05;;;1.48;;
22713;SDS011;11524;50.846;4.326;2023-02-28T15:21:45;1.92;;;1.30;;
22713;SDS011;11524;50.846;4.326;2023-02-28T15:26:42;2.05;;;1.38;;
22713;SDS011;11524;50.846;4.326;2023-02-28T15:29:19;1.92;;;1.38;;
22713;SDS011;11524;50.846;4.326;2023-02-28T15:31:53;2.08;;;1.30;;
22713;SDS011;11524;50.846;4.326;2023-02-28T15:34:43;1.67;;;1.27;;
22713;SDS011;11524;50.846;4.326;2023-02-28T15:42:36;1.40;;;1.30;;
22713;SDS011;11524;50.846;4.326;2023-02-28T15:45:02;1.75;;;1.50;;
22713;SDS011;11524;50.846;4.326;2023-02-28T15:47:29;2.05;;;1.50;;
22713;SDS011;11524;50.846;4.326;2023-02-28T15:50:05;2.85;;;1.33;;
22713;SDS011;11524;50.846;4.326;2023-02-28T15:52:39;2.35;;;1.25;;
22713;SDS011;11524;50.846;4.326;2023-02-28T15:55:09;1.73;;;1.10;;
22713;SDS011;11524;50.846;4.326;2023-02-28T15:58:03;2.53;;;1.40;;
22713;SDS011;11524;50.846;4.326;2023-02-28T16:00:31;1.92;;;1.30;;
22713;SDS011;11524;50.846;4.326;2023-02-28T16:03:32;1.50;;;1.10;;
22713;SDS011;11524;50.846;4.326;2023-02-28T16:08:49;2.05;;;1.30;;
22713;SDS011;11524;50.846;4.326;2023-02-28T16:11:16;2.05;;;1.30;;
22713;SDS011;11524;50.846;4.326;2023-02-28T16:13:42;2.08;;;1.20;;
22713;SDS011;11524;50.846;4.326;2023-02-28T16:16:08;2.67;;;1.27;;
22713;SDS011;11524;50.846;4.326;2023-02-28T16:18:39;2.13;;;1.50;;
22713;SDS011;11524;50.846;4.326;2023-02-28T16:21:05;4.45;;;1.80;;
22713;SDS011;11524;50.846;4.326;2023-02-28T16:23:30;4.88;;;2.03;;
22713;SDS011;11524;50.846;4.326;2023-02-28T16:25:56;4.25;;;1.80;;
22713;SDS011;11524;50.846;4.326;2023-02-28T16:28:24;3.50;;;2.00;;
22713;SDS011;11524;50.846;4.326;2023-02-28T16:30:57;6.95;;;2.08;;
22713;SDS011;11524;50.846;4.326;2023-02-28T16:33:26;5.75;;;1.77;;
22713;SDS011;11524;50.846;4.326;2023-02-28T16:35:52;4.97;;;1.73;;
22713;SDS011;11524;50.846;4.326;2023-02-28T16:38:17;2.80;;;1.85;;
22713;SDS011;11524;50.846;4.326;2023-02-28T16:40:44;6.00;;;2.03;;
22713;SDS011;11524;50.846;4.326;2023-02-28T16:43:13;3.75;;;1.60;;
22713;SDS011;11524;50.846;4.326;2023-02-28T16:45:44;8.05;;;2.03;;
22713;SDS011;11524;50.846;4.326;2023-02-28T16:48:14;4.63;;;2.08;;
22713;SDS011;11524;50.846;4.326;2023-02-28T16:50:41;5.65;;;2.17;;
22713;SDS011;11524;50.846;4.326;2023-02-28T16:53:07;3.72;;;1.73;;
22713;SDS011;11524;50.846;4.326;2023-02-28T16:55:32;3.85;;;1.80;;
22713;SDS011;11524;50.846;4.326;2023-02-28T16:58:00;6.38;;;1.88;;
22713;SDS011;11524;50.846;4.326;2023-02-28T17:00:27;4.80;;;2.00;;
22713;SDS011;11524;50.846;4.326;2023-02-28T17:02:56;3.40;;;1.85;;
22713;SDS011;11524;50.846;4.326;2023-02-28T17:05:23;3.03;;;1.88;;
22713;SDS011;11524;50.846;4.326;2023-02-28T17:07:50;3.92;;;1.98;;
22713;SDS011;11524;50.846;4.326;2023-02-28T17:10:21;2.58;;;1.60;;
22713;SDS011;11524;50.846;4.326;2023-02-28T17:12:48;2.58;;;1.70;;
22713;SDS011;11524;50.846;4.326;2023-02-28T17:15:14;6.45;;;2.15;;
22713;SDS011;11524;50.846;4.326;2023-02-28T17:17:41;3.13;;;1.92;;
22713;SDS011;11524;50.846;4.326;2023-02-28T17:20:12;4.05;;;1.90;;
22713;SDS011;11524;50.846;4.326;2023-02-28T17:22:42;3.90;;;2.00;;
22713;SDS011;11524;50.846;4.326;2023-02-28T17:25:08;4.50;;;1.90;;
22713;SDS011;11524;50.846;4.326;2023-02-28T17:27:35;4.82;;;2.50;;
22713;SDS011;11524;50.846;4.326;2023-02-28T17:30:03;5.65;;;2.20;;
22713;SDS011;11524;50.846;4.326;2023-02-28T17:32:58;3.97;;;2.30;;
22713;SDS011;11524;50.846;4.326;2023-02-28T17:35:23;4.38;;;2.30;;
22713;SDS011;11524;50.846;4.326;2023-02-28T17:37:49;4.30;;;2.15;;
22713;SDS011;11524;50.846;4.326;2023-02-28T17:40:15;4.45;;;2.45;;